sensor_id;sensor_type;location;lat;lon;timestamp;P1;P2;P0
61879;PMS7003;47817;52.798;27.544;2022-11-20T00:04:22;8.8;5.8;4.2
61879;PMS7003;47817;52.798;27.544;2022-11-20T00:09:20;7.2;6.2;4.6
61879;PMS7003;47817;52.798;27.544;2022-11-20T00:14:34;5.8;4.4;3.2
61879;PMS7003;47817;52.798;27.544;2022-11-20T00:19:02;8.8;7;4.4
61879;PMS7003;47817;52.798;27.544;2022-11-20T00:24:44;6;4.2;2.6
61879;PMS7003;47817;52.798;27.544;2022-11-20T00:29:22;4.8;4.6;3.4
61879;PMS7003;47817;52.798;27.544;2022-11-20T00:34:22;5.8;4.8;3.8
61879;PMS7003;47817;52.798;27.544;2022-11-20T00:39:34;5.8;3.6;3.4
61879;PMS7003;47817;52.798;27.544;2022-11-20T00:44:24;7.2;5.4;2.8
61879;PMS7003;47817;52.798;27.544;2022-11-20T00:49:48;5.4;4.4;2.6
61879;PMS7003;47817;52.798;27.544;2022-11-20T00:54:10;5.2;4.4;2.6
61879;PMS7003;47817;52.798;27.544;2022-11-20T00:59:46;8.4;5.4;3.6
61879;PMS7003;47817;52.798;27.544;2022-11-20T01:04:46;3.8;2.4;1.8
61879;PMS7003;47817;52.798;27.544;2022-11-20T01:09:44;4.6;4;2.8
61879;PMS7003;47817;52.798;27.544;2022-11-20T01:14:20;2.2;1.8;1.8
61879;PMS7003;47817;52.798;27.544;2022-11-20T01:19:04;6;3.8;2.8
61879;PMS7003;47817;52.798;27.544;2022-11-20T01:24:20;5.8;4.8;3.8
61879;PMS7003;47817;52.798;27.544;2022-11-20T01:29:52;6.6;3.8;3
61879;PMS7003;47817;52.798;27.544;2022-11-20T01:34:26;4.8;3;2.4
61879;PMS7003;47817;52.798;27.544;2022-11-20T01:39:40;6.4;4.8;2.6
61879;PMS7003;47817;52.798;27.544;2022-11-20T01:44:15;5;4.2;3
61879;PMS7003;47817;52.798;27.544;2022-11-20T01:49:54;7.4;4.2;2.8
61879;PMS7003;47817;52.798;27.544;2022-11-20T01:54:12;8.4;5.8;4
61879;PMS7003;47817;52.798;27.544;2022-11-20T01:59:28;6.5;5;3.5
61879;PMS7003;47817;52.798;27.544;2022-11-20T02:04:38;5.6;3;1.8
61879;PMS7003;47817;52.798;27.544;2022-11-20T02:09:14;6.4;2.8;2.6
61879;PMS7003;47817;52.798;27.544;2022-11-20T02:14:38;5.4;3.4;3
61879;PMS7003;47817;52.798;27.544;2022-11-20T02:19:50;5.8;4.6;3.4
61879;PMS7003;47817;52.798;27.544;2022-11-20T02:24:48;8.4;5;3.6
61879;PMS7003;47817;52.798;27.544;2022-11-20T02:29:23;6.2;3.8;3
61879;PMS7003;47817;52.798;27.544;2022-11-20T02:34:02;6.6;4.2;3.2
61879;PMS7003;47817;52.798;27.544;2022-11-20T02:39:22;7;4;3.5
61879;PMS7003;47817;52.798;27.544;2022-11-20T02:44:50;6.4;2.8;2
61879;PMS7003;47817;52.798;27.544;2022-11-20T02:49:26;5.2;3.6;3
61879;PMS7003;47817;52.798;27.544;2022-11-20T02:54:40;5.2;4;3
61879;PMS7003;47817;52.798;27.544;2022-11-20T02:59:02;7.8;5.6;4
61879;PMS7003;47817;52.798;27.544;2022-11-20T03:04:50;6.8;4.6;3.8
61879;PMS7003;47817;52.798;27.544;2022-11-20T03:09:22;5.6;3.8;2.8
61879;PMS7003;47817;52.798;27.544;2022-11-20T03:14:40;5.4;4.8;3.6
61879;PMS7003;47817;52.798;27.544;2022-11-20T03:19:36;6;4.2;3.4
61879;PMS7003;47817;52.798;27.544;2022-11-20T03:24:02;5.8;4;3.2
61879;PMS7003;47817;52.798;27.544;2022-11-20T03:29:38;5.4;4.8;3.4
61879;PMS7003;47817;52.798;27.544;2022-11-20T03:34:48;5.8;4.5;3.3
61879;PMS7003;47817;52.798;27.544;2022-11-20T03:39:48;7.6;4.4;3.2
61879;PMS7003;47817;52.798;27.544;2022-11-20T03:44:24;8.8;4.4;3.4
61879;PMS7003;47817;52.798;27.544;2022-11-20T03:49:14;6.4;3.6;3.2
61879;PMS7003;47817;52.798;27.544;2022-11-20T03:54:14;4.5;3.8;2.5
61879;PMS7003;47817;52.798;27.544;2022-11-20T03:59:50;6;3.4;3.2
61879;PMS7003;47817;52.798;27.544;2022-11-20T04:04:26;5.2;5;3.4
61879;PMS7003;47817;52.798;27.544;2022-11-20T04:09:38;7.4;5;3.2
61879;PMS7003;47817;52.798;27.544;2022-11-20T04:14:03;4;3.4;3.4
61879;PMS7003;47817;52.798;27.544;2022-11-20T04:19:50;5.2;4.8;3.8
61879;PMS7003;47817;52.798;27.544;2022-11-20T04:24:20;5.8;3.8;2.8
61879;PMS7003;47817;52.798;27.544;2022-11-20T04:29:38;6.8;5.4;3.6
61879;PMS7003;47817;52.798;27.544;2022-11-20T04:34:24;6.6;4.2;3.2
61879;PMS7003;47817;52.798;27.544;2022-11-20T04:39:13;5.6;3.8;3
61879;PMS7003;47817;52.798;27.544;2022-11-20T04:44:50;6.5;4;2.8
61879;PMS7003;47817;52.798;27.544;2022-11-20T04:49:36;5.8;4.2;2.6
61879;PMS7003;47817;52.798;27.544;2022-11-20T04:54:48;6;5;3.4
61879;PMS7003;47817;52.798;27.544;2022-11-20T04:59:02;5.2;3.4;2.8
61879;PMS7003;47817;52.798;27.544;2022-11-20T05:04:14;5;4;2.8
61879;PMS7003;47817;52.798;27.544;2022-11-20T05:09:14;7.6;4;3
61879;PMS7003;47817;52.798;27.544;2022-11-20T05:14:50;6.3;4.8;3
61879;PMS7003;47817;52.798;27.544;2022-11-20T05:19:02;6.6;4;2.8
61879;PMS7003;47817;52.798;27.544;2022-11-20T05:24:38;6;3.8;2.8
61879;PMS7003;47817;52.798;27.544;2022-11-20T05:29:02;7;4.6;3
61879;PMS7003;47817;52.798;27.544;2022-11-20T05:34:48;7;4;2.6
61879;PMS7003;47817;52.798;27.544;2022-11-20T05:39:22;5.2;3.4;3.2
61879;PMS7003;47817;52.798;27.544;2022-11-20T05:44:40;4.5;3.5;3
61879;PMS7003;47817;52.798;27.544;2022-11-20T05:49:26;5.6;3;2.2
61879;PMS7003;47817;52.798;27.544;2022-11-20T05:54:02;4.8;4;3.2
61879;PMS7003;47817;52.798;27.544;2022-11-20T05:59:50;7.8;5.4;3.8
61879;PMS7003;47817;52.798;27.544;2022-11-20T06:04:50;5.4;4.4;3.2
61879;PMS7003;47817;52.798;27.544;2022-11-20T06:09:42;4.8;3;2.6
61879;PMS7003;47817;52.798;27.544;2022-11-20T06:14:26;4.4;3.2;2.8
61879;PMS7003;47817;52.798;27.544;2022-11-20T06:19:02;6;3.8;3
61879;PMS7003;47817;52.798;27.544;2022-11-20T06:24:14;9.8;7.8;5.4
61879;PMS7003;47817;52.798;27.544;2022-11-20T06:29:50;8.4;5.8;4.2
61879;PMS7003;47817;52.798;27.544;2022-11-20T06:34:02;14.2;9.8;7
61879;PMS7003;47817;52.798;27.544;2022-11-20T06:39:40;14.5;9.3;6.5
61879;PMS7003;47817;52.798;27.544;2022-11-20T06:44:38;6.4;5.2;3.4
61879;PMS7003;47817;52.798;27.544;2022-11-20T06:49:52;14.8;10.6;7.6
61879;PMS7003;47817;52.798;27.544;2022-11-20T06:54:24;33.6;25.8;15.6
61879;PMS7003;47817;52.798;27.544;2022-11-20T06:59:38;40.6;31.6;19.6
61879;PMS7003;47817;52.798;27.544;2022-11-20T07:04:14;27;21.2;13.6
61879;PMS7003;47817;52.798;27.544;2022-11-20T07:09:38;16;13;8.8
61879;PMS7003;47817;52.798;27.544;2022-11-20T07:14:50;24.4;18;11.6
61879;PMS7003;47817;52.798;27.544;2022-11-20T07:19:52;25.4;20.2;13
61879;PMS7003;47817;52.798;27.544;2022-11-20T07:24:52;16;11.6;8
61879;PMS7003;47817;52.798;27.544;2022-11-20T07:29:02;9.2;7.6;5
61879;PMS7003;47817;52.798;27.544;2022-11-20T07:34:14;7.2;7.2;5.4
61879;PMS7003;47817;52.798;27.544;2022-11-20T07:39:24;9.6;8.6;6
61879;PMS7003;47817;52.798;27.544;2022-11-20T07:44:52;11;8.8;6.6
61879;PMS7003;47817;52.798;27.544;2022-11-20T07:49:26;31;24.5;17.3
61879;PMS7003;47817;52.798;27.544;2022-11-20T07:54:40;13.8;10.4;8.4
61879;PMS7003;47817;52.798;27.544;2022-11-20T07:59:02;14.4;10.2;7.4
61879;PMS7003;47817;52.798;27.544;2022-11-20T08:04:52;13.4;11.4;7.4
61879;PMS7003;47817;52.798;27.544;2022-11-20T08:09:24;13.6;9.4;7
61879;PMS7003;47817;52.798;27.544;2022-11-20T08:14:40;11.4;7.8;5.6
61879;PMS7003;47817;52.798;27.544;2022-11-20T08:19:36;6.2;4.6;3.2
61879;PMS7003;47817;52.798;27.544;2022-11-20T08:24:02;7.6;5;4.4
61879;PMS7003;47817;52.798;27.544;2022-11-20T08:29:50;9.8;7.8;6.4
61879;PMS7003;47817;52.798;27.544;2022-11-20T08:34:50;8.6;6.6;5.2
61879;PMS7003;47817;52.798;27.544;2022-11-20T08:39:50;10.2;7.8;5.8
61879;PMS7003;47817;52.798;27.544;2022-11-20T08:44:26;9.5;8.5;5.5
61879;PMS7003;47817;52.798;27.544;2022-11-20T08:49:13;17.6;15.6;12
61879;PMS7003;47817;52.798;27.544;2022-11-20T08:54:02;25.4;21.6;15.8
61879;PMS7003;47817;52.798;27.544;2022-11-20T08:59:46;33.2;27.8;21.4
61879;PMS7003;47817;52.798;27.544;2022-11-20T09:04:22;23.3;19.8;14.3
61879;PMS7003;47817;52.798;27.544;2022-11-20T09:09:32;23;18.2;13.6
61879;PMS7003;47817;52.798;27.544;2022-11-20T09:14:14;36;28.2;19.2
61879;PMS7003;47817;52.798;27.544;2022-11-20T09:19:24;31.8;22.6;16
61879;PMS7003;47817;52.798;27.544;2022-11-20T09:24:38;16.4;14;9.8
61879;PMS7003;47817;52.798;27.544;2022-11-20T09:29:34;24.2;20.6;14
61879;PMS7003;47817;52.798;27.544;2022-11-20T09:34:20;20.4;15.8;10.6
61879;PMS7003;47817;52.798;27.544;2022-11-20T09:39:12;15.2;12;8.8
61879;PMS7003;47817;52.798;27.544;2022-11-20T09:44:28;13;10.4;8
61879;PMS7003;47817;52.798;27.544;2022-11-20T09:49:40;10.8;8;6
61879;PMS7003;47817;52.798;27.544;2022-11-20T09:54:21;10.5;6.3;5
61879;PMS7003;47817;52.798;27.544;2022-11-20T09:59:49;10.4;7.4;5.4
61879;PMS7003;47817;52.798;27.544;2022-11-20T10:04:22;6.6;5.2;3.8
61879;PMS7003;47817;52.798;27.544;2022-11-20T10:09:16;7.6;6.2;4.4
61879;PMS7003;47817;52.798;27.544;2022-11-20T10:14:25;8.2;6.6;4.6
61879;PMS7003;47817;52.798;27.544;2022-11-20T10:19:47;11.8;7;5.4
61879;PMS7003;47817;52.798;27.544;2022-11-20T10:24:51;7.4;5.6;4.4
61879;PMS7003;47817;52.798;27.544;2022-11-20T10:29:07;8.6;6.4;4.4
61879;PMS7003;47817;52.798;27.544;2022-11-20T10:34:03;8.8;6.6;4.4
61879;PMS7003;47817;52.798;27.544;2022-11-20T10:39:39;7.8;6.3;4.5
61879;PMS7003;47817;52.798;27.544;2022-11-20T10:44:36;10;7.8;6.2
61879;PMS7003;47817;52.798;27.544;2022-11-20T10:49:13;9;7;5
61879;PMS7003;47817;52.798;27.544;2022-11-20T10:54:17;9.8;8.6;6
61879;PMS7003;47817;52.798;27.544;2022-11-20T10:59:04;9;6.6;4.6
61879;PMS7003;47817;52.798;27.544;2022-11-20T11:04:35;7;5;4.2
61879;PMS7003;47817;52.798;27.544;2022-11-20T11:09:24;7;5;4
61879;PMS7003;47817;52.798;27.544;2022-11-20T11:14:49;5;4.4;3
61879;PMS7003;47817;52.798;27.544;2022-11-20T11:19:03;4.8;3.8;2.2
61879;PMS7003;47817;52.798;27.544;2022-11-20T11:24:15;6;5;3.8
61879;PMS7003;47817;52.798;27.544;2022-11-20T11:29:22;3.8;2.4;2.2
61879;PMS7003;47817;52.798;27.544;2022-11-20T11:34:58;2.8;2.6;1.6
61879;PMS7003;47817;52.798;27.544;2022-11-20T11:39:50;6.2;3.4;2.8
61879;PMS7003;47817;52.798;27.544;2022-11-20T11:44:04;5;2.6;1.8
61879;PMS7003;47817;52.798;27.544;2022-11-20T11:49:22;5.8;3.6;2.8
61879;PMS7003;47817;52.798;27.544;2022-11-20T11:54:17;3.4;2.2;1.6
61879;PMS7003;47817;52.798;27.544;2022-11-20T11:59:41;30.5;21.8;15
61879;PMS7003;47817;52.798;27.544;2022-11-20T12:04:30;11;8.4;6.4
61879;PMS7003;47817;52.798;27.544;2022-11-20T12:09:14;7.6;5.4;4.2
61879;PMS7003;47817;52.798;27.544;2022-11-20T12:14:03;8.4;6.6;5.2
61879;PMS7003;47817;52.798;27.544;2022-11-20T12:19:40;4.8;4.2;3
61879;PMS7003;47817;52.798;27.544;2022-11-20T12:24:19;6.4;3.6;3
61879;PMS7003;47817;52.798;27.544;2022-11-20T12:29:52;5.4;4.2;3.8
61879;PMS7003;47817;52.798;27.544;2022-11-20T12:34:30;5;2.8;2.2
61879;PMS7003;47817;52.798;27.544;2022-11-20T12:39:07;7.6;6.2;4.6
61879;PMS7003;47817;52.798;27.544;2022-11-20T12:44:04;8.4;6.8;5
61879;PMS7003;47817;52.798;27.544;2022-11-20T12:49:52;8.4;5;3.8
61879;PMS7003;47817;52.798;27.544;2022-11-20T12:54:52;7;4.6;3
61879;PMS7003;47817;52.798;27.544;2022-11-20T12:59:49;13.3;10.5;7.5
61879;PMS7003;47817;52.798;27.544;2022-11-20T13:04:17;13;8.4;4.4
61879;PMS7003;47817;52.798;27.544;2022-11-20T13:09:40;10.8;7.6;5.8
61879;PMS7003;47817;52.798;27.544;2022-11-20T13:14:40;10.8;7.3;6
61879;PMS7003;47817;52.798;27.544;2022-11-20T13:19:13;10.4;5.4;4.4
61879;PMS7003;47817;52.798;27.544;2022-11-20T13:24:51;7.6;5.4;4.4
61879;PMS7003;47817;52.798;27.544;2022-11-20T13:29:16;9.2;6.2;4.2
61879;PMS7003;47817;52.798;27.544;2022-11-20T13:34:52;9.6;6.8;4.6
61879;PMS7003;47817;52.798;27.544;2022-11-20T13:39:02;5.8;4.8;3.8
61879;PMS7003;47817;52.798;27.544;2022-11-20T13:44:50;7;4.4;4
61879;PMS7003;47817;52.798;27.544;2022-11-20T13:49:26;6.8;6;3.8
61879;PMS7003;47817;52.798;27.544;2022-11-20T13:54:32;7.2;5.8;3
61879;PMS7003;47817;52.798;27.544;2022-11-20T13:59:27;7;4.8;3.8
61879;PMS7003;47817;52.798;27.544;2022-11-20T14:04:38;7.5;6.5;5
61879;PMS7003;47817;52.798;27.544;2022-11-20T14:09:49;6.2;5.6;3.8
61879;PMS7003;47817;52.798;27.544;2022-11-20T14:14:47;9.8;8;5.8
61879;PMS7003;47817;52.798;27.544;2022-11-20T14:19:34;8.4;6.4;4.6
61879;PMS7003;47817;52.798;27.544;2022-11-20T14:24:34;11.2;9.4;6.4
61879;PMS7003;47817;52.798;27.544;2022-11-20T14:29:33;9.2;7.4;5.4
61879;PMS7003;47817;52.798;27.544;2022-11-20T14:34:23;8;5.6;4.2
61879;PMS7003;47817;52.798;27.544;2022-11-20T14:39:48;9.8;6.5;5
61879;PMS7003;47817;52.798;27.544;2022-11-20T14:44:14;8.4;5.4;4.6
61879;PMS7003;47817;52.798;27.544;2022-11-20T14:49:48;7;5.8;4
61879;PMS7003;47817;52.798;27.544;2022-11-20T14:54:24;8;4.8;3.4
61879;PMS7003;47817;52.798;27.544;2022-11-20T14:59:46;6.2;5.4;3.6
61879;PMS7003;47817;52.798;27.544;2022-11-20T15:04:12;9.4;7.2;5
61879;PMS7003;47817;52.798;27.544;2022-11-20T15:09:22;8.4;6.6;4.6
61879;PMS7003;47817;52.798;27.544;2022-11-20T15:14:20;8.8;5.8;4.4
61879;PMS7003;47817;52.798;27.544;2022-11-20T15:19:26;9.4;7.4;5.6
61879;PMS7003;47817;52.798;27.544;2022-11-20T15:24:48;9.8;6.5;5.3
61879;PMS7003;47817;52.798;27.544;2022-11-20T15:29:48;8;5.6;4.4
61879;PMS7003;47817;52.798;27.544;2022-11-20T15:34:13;7.8;5.6;3.8
61879;PMS7003;47817;52.798;27.544;2022-11-20T15:39:12;8.6;5;4
61879;PMS7003;47817;52.798;27.544;2022-11-20T15:44:34;8.4;6.2;4.8
61879;PMS7003;47817;52.798;27.544;2022-11-20T15:49:24;9.8;6.8;4.4
61879;PMS7003;47817;52.798;27.544;2022-11-20T15:54:46;6.2;4.8;3.2
61879;PMS7003;47817;52.798;27.544;2022-11-20T15:59:12;6.2;5.2;3.8
61879;PMS7003;47817;52.798;27.544;2022-11-20T16:04:32;23;18.2;12.8
61879;PMS7003;47817;52.798;27.544;2022-11-20T16:09:22;22.3;14.3;8.3
61879;PMS7003;47817;52.798;27.544;2022-11-20T16:14:44;7.2;5.4;3.6
61879;PMS7003;47817;52.798;27.544;2022-11-20T16:19:14;6.8;5.4;3.8
61879;PMS7003;47817;52.798;27.544;2022-11-20T16:24:22;7;4.8;3.8
61879;PMS7003;47817;52.798;27.544;2022-11-20T16:29:20;6.8;5.4;3.4
61879;PMS7003;47817;52.798;27.544;2022-11-20T16:34:36;7.8;5.8;3.5
61879;PMS7003;47817;52.798;27.544;2022-11-20T16:39:46;10.6;6.8;4.4
61879;PMS7003;47817;52.798;27.544;2022-11-20T16:44:46;7.8;6;3.6
61879;PMS7003;47817;52.798;27.544;2022-11-20T16:49:13;6.8;4.8;3.6
61879;PMS7003;47817;52.798;27.544;2022-11-20T16:54:34;6.4;5.6;3.8
61879;PMS7003;47817;52.798;27.544;2022-11-20T16:59:46;11.2;7.4;5.4
61879;PMS7003;47817;52.798;27.544;2022-11-20T17:04:18;19.6;15.4;10
61879;PMS7003;47817;52.798;27.544;2022-11-20T17:09:42;9.8;7.8;5.8
61879;PMS7003;47817;52.798;27.544;2022-11-20T17:14:12;13;7.6;5.6
61879;PMS7003;47817;52.798;27.544;2022-11-20T17:19:46;8;7;5.8
61879;PMS7003;47817;52.798;27.544;2022-11-20T17:24:20;10.4;7;5.6
61879;PMS7003;47817;52.798;27.544;2022-11-20T17:29:44;10.6;8.6;6.4
61879;PMS7003;47817;52.798;27.544;2022-11-20T17:34:22;10;7.4;4.6
61879;PMS7003;47817;52.798;27.544;2022-11-20T17:39:22;6.4;5.2;4
61879;PMS7003;47817;52.798;27.544;2022-11-20T17:44:20;9.8;6.4;4
61879;PMS7003;47817;52.798;27.544;2022-11-20T17:49:36;14.8;11.6;8.4
61879;PMS7003;47817;52.798;27.544;2022-11-20T17:54:03;10.8;7.8;6.2
61879;PMS7003;47817;52.798;27.544;2022-11-20T17:59:46;9.2;5.4;4.4
61879;PMS7003;47817;52.798;27.544;2022-11-20T18:04:03;7.8;5.8;3.8
61879;PMS7003;47817;52.798;27.544;2022-11-20T18:09:46;6.4;5.4;3.6
61879;PMS7003;47817;52.798;27.544;2022-11-20T18:14:32;9.3;5;3.8
61879;PMS7003;47817;52.798;27.544;2022-11-20T18:19:27;9;6.3;4.8
61879;PMS7003;47817;52.798;27.544;2022-11-20T18:24:35;8.6;7.2;5
61879;PMS7003;47817;52.798;27.544;2022-11-20T18:29:03;10;6.4;4.8
61879;PMS7003;47817;52.798;27.544;2022-11-20T18:34:45;6.2;5.6;3.2
61879;PMS7003;47817;52.798;27.544;2022-11-20T18:39:44;9.2;6.6;5.2
61879;PMS7003;47817;52.798;27.544;2022-11-20T18:44:33;9;6;4.6
61879;PMS7003;47817;52.798;27.544;2022-11-20T18:49:25;9.2;6.8;4.8
61879;PMS7003;47817;52.798;27.544;2022-11-20T18:54:13;10.2;6.6;4.6
61879;PMS7003;47817;52.798;27.544;2022-11-20T18:59:21;8.8;6.2;4.6
61879;PMS7003;47817;52.798;27.544;2022-11-20T19:04:25;9;6.4;3.8
61879;PMS7003;47817;52.798;27.544;2022-11-20T19:09:03;9.6;6.8;4
61879;PMS7003;47817;52.798;27.544;2022-11-20T19:14:44;9.2;6.2;4.4
61879;PMS7003;47817;52.798;27.544;2022-11-20T19:19:03;10.5;7.8;5.8
61879;PMS7003;47817;52.798;27.544;2022-11-20T19:24:46;11.4;8.4;5.6
61879;PMS7003;47817;52.798;27.544;2022-11-20T19:29:34;10;8;6
61879;PMS7003;47817;52.798;27.544;2022-11-20T19:34:36;10.6;7.2;5.8
61879;PMS7003;47817;52.798;27.544;2022-11-20T19:39:34;11.6;7.8;5.8
61879;PMS7003;47817;52.798;27.544;2022-11-20T19:44:13;44.8;34.2;23.8
61879;PMS7003;47817;52.798;27.544;2022-11-20T19:49:46;14;12;8.4
61879;PMS7003;47817;52.798;27.544;2022-11-20T19:54:13;13.6;9.2;6.4
61879;PMS7003;47817;52.798;27.544;2022-11-20T19:59:34;11;7.2;5.2
61879;PMS7003;47817;52.798;27.544;2022-11-20T20:04:24;11.8;8.2;6
61879;PMS7003;47817;52.798;27.544;2022-11-20T20:09:03;12.2;9;6.6
61879;PMS7003;47817;52.798;27.544;2022-11-20T20:14:11;8.8;8.3;5.5
61879;PMS7003;47817;52.798;27.544;2022-11-20T20:19:25;8.2;7;5
61879;PMS7003;47817;52.798;27.544;2022-11-20T20:24:24;11.8;7.8;5.8
61879;PMS7003;47817;52.798;27.544;2022-11-20T20:29:46;8.8;6.4;4.2
61879;PMS7003;47817;52.798;27.544;2022-11-20T20:34:02;13.5;8.5;5.8
61879;PMS7003;47817;52.798;27.544;2022-11-20T20:39:46;9.4;7.4;5.8
61879;PMS7003;47817;52.798;27.544;2022-11-20T20:44:32;11.4;9.2;6.6
61879;PMS7003;47817;52.798;27.544;2022-11-20T20:49:34;10;6.8;4.6
61879;PMS7003;47817;52.798;27.544;2022-11-20T20:54:34;10.4;8.8;6.6
61879;PMS7003;47817;52.798;27.544;2022-11-20T20:59:02;11;8.8;6.6
61879;PMS7003;47817;52.798;27.544;2022-11-20T21:04:49;10.6;8.6;6.4
61879;PMS7003;47817;52.798;27.544;2022-11-20T21:09:48;13.4;10;6.6
61879;PMS7003;47817;52.798;27.544;2022-11-20T21:14:27;14.6;10.4;7.4
61879;PMS7003;47817;52.798;27.544;2022-11-20T21:19:22;15.2;10;6.8
61879;PMS7003;47817;52.798;27.544;2022-11-20T21:24:12;11.3;8.3;6
61879;PMS7003;47817;52.798;27.544;2022-11-20T21:29:21;11;9.2;6.6
61879;PMS7003;47817;52.798;27.544;2022-11-20T21:34:38;13.6;10.4;7.2
61879;PMS7003;47817;52.798;27.544;2022-11-20T21:39:13;14.2;8.4;6
61879;PMS7003;47817;52.798;27.544;2022-11-20T21:44:47;14.8;9.4;7
61879;PMS7003;47817;52.798;27.544;2022-11-20T21:49:12;10.4;7.8;6
61879;PMS7003;47817;52.798;27.544;2022-11-20T21:54:51;11.8;8.2;6.2
61879;PMS7003;47817;52.798;27.544;2022-11-20T21:59:31;12.8;9.4;6.2
61879;PMS7003;47817;52.798;27.544;2022-11-20T22:04:37;14.6;9.8;7.2
61879;PMS7003;47817;52.798;27.544;2022-11-20T22:09:32;14;9.8;6.8
61879;PMS7003;47817;52.798;27.544;2022-11-20T22:14:11;16.8;10.3;6.8
61879;PMS7003;47817;52.798;27.544;2022-11-20T22:19:45;11.8;8.2;5.8
61879;PMS7003;47817;52.798;27.544;2022-11-20T22:24:45;11;9;6.6
61879;PMS7003;47817;52.798;27.544;2022-11-20T22:29:41;11.4;9.2;6.4
61879;PMS7003;47817;52.798;27.544;2022-11-20T22:34:21;8.8;7;4.8
61879;PMS7003;47817;52.798;27.544;2022-11-20T22:39:03;13;8.8;6.6
61879;PMS7003;47817;52.798;27.544;2022-11-20T22:44:19;12;10;7
61879;PMS7003;47817;52.798;27.544;2022-11-20T22:49:45;14.2;10.8;7.8
61879;PMS7003;47817;52.798;27.544;2022-11-20T22:54:11;13;10.2;6.8
61879;PMS7003;47817;52.798;27.544;2022-11-20T22:59:35;12.6;10;6.2
61879;PMS7003;47817;52.798;27.544;2022-11-20T23:04:03;15.8;12;7.6
61879;PMS7003;47817;52.798;27.544;2022-11-20T23:09:45;13;8.8;6.6
61879;PMS7003;47817;52.798;27.544;2022-11-20T23:14:17;13.4;10.6;7.6
61879;PMS7003;47817;52.798;27.544;2022-11-20T23:19:23;12.6;10;7.8
61879;PMS7003;47817;52.798;27.544;2022-11-20T23:24:31;17.6;12.2;7.8
61879;PMS7003;47817;52.798;27.544;2022-11-20T23:29:03;12;10.5;6.5
61879;PMS7003;47817;52.798;27.544;2022-11-20T23:34:45;14.2;11.6;7.2
61879;PMS7003;47817;52.798;27.544;2022-11-20T23:39:45;10.6;8.8;6.8
61879;PMS7003;47817;52.798;27.544;2022-11-20T23:44:43;14.6;10.2;7.8
61879;PMS7003;47817;52.798;27.544;2022-11-20T23:49:03;16.2;11.2;8
61879;PMS7003;47817;52.798;27.544;2022-11-20T23:54:21;16;9.8;6.4
61879;PMS7003;47817;52.798;27.544;2022-11-20T23:59:04;14.4;10.6;7.2
